createdAt,value
2023-10-19T16:32:05.398Z,4.90
2023-10-19T16:33:07.308Z,6.00
2023-10-19T16:34:10.112Z,34.43
2023-10-19T16:35:12.029Z,4.50
2023-10-19T16:36:14.355Z,5.23
2023-10-19T16:37:16.182Z,6.13
2023-10-19T16:38:17.762Z,4.03
2023-10-19T16:39:20.173Z,8.80
2023-10-19T16:40:22.317Z,9.00
2023-10-19T16:41:24.229Z,10.07
2023-10-19T16:42:26.021Z,14.10
2023-10-19T16:43:28.649Z,9.00
2023-10-19T16:44:31.524Z,7.90
2023-10-19T16:45:33.541Z,12.17
2023-10-19T16:46:37.531Z,7.23
2023-10-19T16:47:43.061Z,7.17
2023-10-19T16:48:45.094Z,9.30
2023-10-19T16:49:46.866Z,7.23
2023-10-19T16:50:49.486Z,3.97
2023-10-19T16:51:51.241Z,7.73
2023-10-19T16:52:53.259Z,14.43
2023-10-19T16:53:55.060Z,17.10
2023-10-19T16:54:56.593Z,20.63
2023-10-19T16:55:59.912Z,10.53
2023-10-19T16:57:03.088Z,9.27
2023-10-19T16:58:04.861Z,10.03
2023-10-19T16:59:08.102Z,7.97
2023-10-19T17:00:15.100Z,6.17
2023-10-19T17:01:18.518Z,5.50
2023-10-19T17:02:20.246Z,7.33
2023-10-19T17:03:22.102Z,8.63
2023-10-19T17:04:23.963Z,23.73
2023-10-19T17:05:27.260Z,13.10
2023-10-19T17:06:29.116Z,7.70
2023-10-19T17:07:31.045Z,14.17
2023-10-19T17:08:32.914Z,12.10
2023-10-19T17:09:35.124Z,16.80
2023-10-19T17:10:37.104Z,11.10
2023-10-19T17:11:41.320Z,16.13
2023-10-19T17:12:42.941Z,12.63
2023-10-19T17:13:44.661Z,29.47
2023-10-19T17:14:47.172Z,82.37
2023-10-19T17:15:49.145Z,102.47
2023-10-19T17:16:51.814Z,46.50
2023-10-19T17:17:54.074Z,39.97
2023-10-19T17:18:56.084Z,32.43
2023-10-19T17:19:57.912Z,34.87
2023-10-19T17:21:01.644Z,26.97
2023-10-19T17:22:03.423Z,26.00
2023-10-19T17:23:05.186Z,23.83
2023-10-19T17:24:07.645Z,17.00
2023-10-19T17:25:09.905Z,13.97
2023-10-19T17:26:12.804Z,11.97
2023-10-19T17:27:14.835Z,14.43
2023-10-19T17:28:16.636Z,17.57
2023-10-19T17:29:19.849Z,12.37
2023-10-19T17:30:22.101Z,14.87
2023-10-19T17:31:24.174Z,30.03
2023-10-19T17:32:26.261Z,40.53
2023-10-19T17:33:28.877Z,32.87
2023-10-19T17:34:31.116Z,36.97
2023-10-19T17:35:33.191Z,21.43
2023-10-19T17:36:35.725Z,26.03
2023-10-19T17:37:37.352Z,28.90
2023-10-19T17:38:39.192Z,17.20
2023-10-19T17:39:40.681Z,15.50
2023-10-19T17:40:42.420Z,12.13
2023-10-19T17:41:47.573Z,11.30
2023-10-19T17:42:49.219Z,10.30
2023-10-19T17:43:51.203Z,11.33
2023-10-19T17:44:52.917Z,10.53
2023-10-19T17:45:54.579Z,18.60
2023-10-19T17:46:56.466Z,23.70
2023-10-19T17:47:58.316Z,21.73
2023-10-19T17:48:59.980Z,22.93
2023-10-19T17:50:01.661Z,27.90
2023-10-19T17:51:10.810Z,22.20
2023-10-19T17:52:14.816Z,6.90
2023-10-19T17:53:17.510Z,3.83
2023-10-19T17:54:20.399Z,4.87
2023-10-19T17:55:22.117Z,5.17
2023-10-19T17:56:23.895Z,6.10
2023-10-19T17:57:26.578Z,5.50
2023-10-19T17:58:28.217Z,7.10
2023-10-19T17:59:31.341Z,15.00
2023-10-19T18:00:37.857Z,12.97
2023-10-19T18:01:42.794Z,7.23
2023-10-19T18:02:45.170Z,5.57
2023-10-19T18:03:47.489Z,10.13
2023-10-19T18:04:51.429Z,4.83
2023-10-19T18:05:53.179Z,4.70
2023-10-19T18:06:55.308Z,3.40
2023-10-19T18:07:57.219Z,7.60
2023-10-19T18:08:59.316Z,9.50
2023-10-19T18:10:01.234Z,11.40
2023-10-19T18:11:03.269Z,12.27
2023-10-19T18:12:06.130Z,9.47
2023-10-19T18:13:09.041Z,6.93
2023-10-19T18:14:10.774Z,7.77
2023-10-19T18:15:14.664Z,7.80
2023-10-19T18:16:16.602Z,8.33
2023-10-19T18:17:19.769Z,10.70
2023-10-19T18:18:22.599Z,8.47
2023-10-19T18:19:24.296Z,8.30
2023-10-19T18:20:27.325Z,8.63
2023-10-19T18:21:30.910Z,9.27
2023-10-19T18:22:33.679Z,10.47
2023-10-19T18:23:36.174Z,14.60
2023-10-19T18:24:38.171Z,12.50
2023-10-19T18:25:42.353Z,14.93
2023-10-19T18:26:46.722Z,15.87
2023-10-19T18:27:48.628Z,20.83
2023-10-19T18:28:50.392Z,21.13
2023-10-19T18:29:52.504Z,15.80
2023-10-19T18:31:00.451Z,12.90
2023-10-19T18:32:02.082Z,17.40
2023-10-19T18:33:04.060Z,16.77
2023-10-19T18:34:05.985Z,12.67
2023-10-19T18:35:09.289Z,16.93
2023-10-19T18:36:14.810Z,20.83
2023-10-19T18:37:17.885Z,12.83
2023-10-19T18:38:19.865Z,13.20
2023-10-19T18:39:21.864Z,10.30
2023-10-19T18:40:25.037Z,17.73
2023-10-19T18:41:32.356Z,13.47
2023-10-19T18:42:38.752Z,21.90
2023-10-19T18:43:40.686Z,13.60
2023-10-19T18:44:42.926Z,15.60
2023-10-19T18:45:44.687Z,15.47
2023-10-19T18:46:46.447Z,15.10
2023-10-19T18:47:48.119Z,17.00
2023-10-19T18:48:50.237Z,16.13
2023-10-19T18:49:56.559Z,12.47
2023-10-19T18:51:02.201Z,12.03
2023-10-19T18:52:04.887Z,17.07
2023-10-19T18:53:06.989Z,18.60
2023-10-19T18:54:08.797Z,28.87
2023-10-19T18:55:15.390Z,20.00
2023-10-19T18:56:17.361Z,19.40
2023-10-19T18:57:19.144Z,20.00
2023-10-19T18:58:24.883Z,18.10
2023-10-19T18:59:27.520Z,18.07
2023-10-19T19:00:29.930Z,17.80
2023-10-19T19:01:31.893Z,16.17
2023-10-19T19:02:33.778Z,23.30
2023-10-19T19:03:36.099Z,18.87
2023-10-19T19:04:40.128Z,14.60
2023-10-19T19:05:43.764Z,14.90
2023-10-19T19:06:45.694Z,15.40
2023-10-19T19:07:47.905Z,20.27
2023-10-19T19:08:49.948Z,17.63
2023-10-19T19:09:55.240Z,14.43
2023-10-19T19:10:59.272Z,15.03
2023-10-19T19:12:01.001Z,18.90
2023-10-19T19:13:02.663Z,16.23
2023-10-19T19:14:04.779Z,24.13
2023-10-19T19:15:07.474Z,19.07
2023-10-19T19:16:09.491Z,22.20
2023-10-19T19:17:11.744Z,19.80
2023-10-19T19:18:13.990Z,21.53
2023-10-19T19:19:15.701Z,20.93
2023-10-19T19:20:22.461Z,19.87
2023-10-19T19:21:24.435Z,19.00
2023-10-19T19:22:26.336Z,21.70
2023-10-19T19:23:29.663Z,21.13
2023-10-19T19:24:31.968Z,19.27
2023-10-19T19:25:33.992Z,24.93
2023-10-19T19:26:35.748Z,28.40
2023-10-19T19:27:37.562Z,29.10
2023-10-19T19:28:44.521Z,44.00
2023-10-19T19:29:46.494Z,30.20
2023-10-19T19:30:48.529Z,26.17
2023-10-19T19:31:52.455Z,32.20
2023-10-19T19:32:54.693Z,16.77
2023-10-19T19:33:56.237Z,16.20
2023-10-19T19:34:57.949Z,22.67
2023-10-19T19:36:00.803Z,16.57
2023-10-19T19:37:02.555Z,16.70
2023-10-19T19:38:04.979Z,17.63
2023-10-19T19:39:08.667Z,9.30
2023-10-19T19:40:13.747Z,14.47
2023-10-19T19:41:16.382Z,13.60
2023-10-19T19:42:19.039Z,10.67
2023-10-19T19:43:20.869Z,17.00
2023-10-19T19:44:22.740Z,10.07
2023-10-19T19:45:24.467Z,10.60
2023-10-19T19:46:26.133Z,10.10
2023-10-19T19:47:28.230Z,12.00
2023-10-19T19:48:29.999Z,11.67
2023-10-19T19:49:33.708Z,9.10
2023-10-19T19:50:36.207Z,18.93
2023-10-19T19:51:37.864Z,14.03
2023-10-19T19:52:40.262Z,15.77
2023-10-19T19:53:42.070Z,19.70
2023-10-19T19:54:44.191Z,29.50
2023-10-19T19:55:48.180Z,47.93
2023-10-19T19:56:50.774Z,60.33
2023-10-19T19:57:52.540Z,72.80
2023-10-19T19:58:54.449Z,35.90
2023-10-19T19:59:56.086Z,24.47
2023-10-19T20:00:57.713Z,24.50
2023-10-19T20:01:59.508Z,26.17
2023-10-19T20:03:02.132Z,24.87
2023-10-19T20:04:04.151Z,19.10
2023-10-19T20:05:06.348Z,22.00
2023-10-19T20:06:08.396Z,36.13
2023-10-19T20:07:09.999Z,111.27
2023-10-19T20:08:13.264Z,81.97
2023-10-19T20:09:14.982Z,47.97
2023-10-19T20:10:16.680Z,23.47
2023-10-19T20:11:19.435Z,28.47
2023-10-19T20:12:21.114Z,24.57
2023-10-19T20:13:23.302Z,21.47
2023-10-19T20:14:25.013Z,13.10
2023-10-19T20:15:26.819Z,28.83
2023-10-19T20:16:28.824Z,27.63
2023-10-19T20:17:32.792Z,17.57
2023-10-19T20:18:34.779Z,14.37
2023-10-19T20:19:38.590Z,14.10
2023-10-19T20:20:41.281Z,15.50
2023-10-19T20:21:43.270Z,15.07
2023-10-19T20:22:45.992Z,12.50
2023-10-19T20:23:49.158Z,20.10
2023-10-19T20:24:51.607Z,17.97
2023-10-19T20:25:53.930Z,11.80
2023-10-19T20:26:55.867Z,15.50
2023-10-19T20:28:00.127Z,14.53
2023-10-19T20:29:02.420Z,22.40
2023-10-19T20:30:04.660Z,15.27
2023-10-19T20:31:06.634Z,13.37
2023-10-19T20:32:08.394Z,25.90
2023-10-19T20:33:13.321Z,16.70
2023-10-19T20:34:15.089Z,15.13
2023-10-19T20:35:18.977Z,21.40
2023-10-19T20:36:20.855Z,13.50
2023-10-19T20:37:22.644Z,17.20
2023-10-19T20:38:24.353Z,14.30
2023-10-19T20:39:26.252Z,13.30
2023-10-19T20:40:31.817Z,20.00
2023-10-19T20:41:34.128Z,9.70
2023-10-19T20:42:47.644Z,11.43
2023-10-19T20:43:49.319Z,12.83
2023-10-19T20:44:51.064Z,16.40
2023-10-19T20:45:54.043Z,16.93
2023-10-19T20:46:55.623Z,17.90
2023-10-19T20:47:57.630Z,9.20
2023-10-19T20:48:59.497Z,9.17
2023-10-19T20:50:01.270Z,19.30
2023-10-19T20:51:06.842Z,7.43
2023-10-19T20:52:11.514Z,19.93
2023-10-19T20:53:13.317Z,15.40
2023-10-19T20:54:16.216Z,14.63
2023-10-19T20:55:17.909Z,10.80
2023-10-19T20:56:19.482Z,15.83
2023-10-19T20:57:21.112Z,14.63
2023-10-19T20:58:23.860Z,13.23
2023-10-19T20:59:26.441Z,20.67
2023-10-19T21:00:28.325Z,19.60
2023-10-19T21:01:30.426Z,15.03
2023-10-19T21:02:32.076Z,21.20
2023-10-19T21:03:33.936Z,31.33
2023-10-19T21:04:37.025Z,28.40
2023-10-19T21:05:40.218Z,32.73
2023-10-19T21:06:42.072Z,28.47
2023-10-19T21:07:45.168Z,30.77
2023-10-19T21:08:47.348Z,23.60
2023-10-19T21:09:50.056Z,47.07
2023-10-19T21:10:52.200Z,26.00
2023-10-19T21:11:54.258Z,27.50
2023-10-19T21:12:55.946Z,29.20
2023-10-19T21:13:58.166Z,27.10
2023-10-19T21:14:59.888Z,25.53
2023-10-19T21:16:04.291Z,23.00
2023-10-19T21:17:07.238Z,25.03
2023-10-19T21:18:10.421Z,21.67
2023-10-19T21:19:22.266Z,20.23
2023-10-19T21:20:28.662Z,25.77
2023-10-19T21:21:36.884Z,19.27
2023-10-19T21:22:42.240Z,34.23
2023-10-19T21:23:43.978Z,16.03
2023-10-19T21:24:45.960Z,18.13
2023-10-19T21:25:48.172Z,19.53
2023-10-19T21:26:49.961Z,19.70
2023-10-19T21:27:51.837Z,11.60
2023-10-19T21:28:53.872Z,14.70
2023-10-19T21:29:55.658Z,11.83
2023-10-19T21:30:57.625Z,12.33
2023-10-19T21:31:59.464Z,10.00
2023-10-19T21:33:01.426Z,10.90
2023-10-19T21:34:04.206Z,9.33
2023-10-19T21:35:06.208Z,10.13
2023-10-19T21:36:08.657Z,7.90
2023-10-19T21:37:10.451Z,11.33
2023-10-19T21:38:14.348Z,11.60
2023-10-19T21:39:18.391Z,6.47
2023-10-19T21:40:20.084Z,14.27
2023-10-19T21:41:22.771Z,11.07
2023-10-19T21:42:24.639Z,9.47
2023-10-19T21:43:26.731Z,9.00
2023-10-19T21:44:28.421Z,13.00
2023-10-19T21:45:30.620Z,8.80
2023-10-19T21:46:32.773Z,6.73
2023-10-19T21:47:34.448Z,11.17
2023-10-19T21:48:36.135Z,6.63
2023-10-19T21:49:37.631Z,7.70
2023-10-19T21:50:39.390Z,6.73
2023-10-19T21:51:41.532Z,5.97
2023-10-19T21:52:43.525Z,11.17
2023-10-19T21:53:45.195Z,11.67
2023-10-19T21:54:46.826Z,6.30
2023-10-19T21:55:53.196Z,9.77
2023-10-19T21:56:54.988Z,7.50
2023-10-19T21:57:56.611Z,10.63
2023-10-19T21:58:58.391Z,7.07
2023-10-19T22:00:00.510Z,9.50
2023-10-19T22:01:06.348Z,5.83
2023-10-19T22:02:08.107Z,11.33
2023-10-19T22:03:13.218Z,6.20
2023-10-19T22:04:15.318Z,11.73
2023-10-19T22:05:25.570Z,5.37
2023-10-19T22:06:27.912Z,6.20
2023-10-19T22:07:29.712Z,5.57
2023-10-19T22:08:31.415Z,11.77
2023-10-19T22:09:33.626Z,6.00
2023-10-19T22:10:35.300Z,5.00
2023-10-19T22:11:37.344Z,5.10
2023-10-19T22:12:39.323Z,4.40
2023-10-19T22:13:41.041Z,5.40
2023-10-19T22:14:44.210Z,6.00
2023-10-19T22:15:45.765Z,4.47
2023-10-19T22:16:47.294Z,8.83
2023-10-19T22:17:49.796Z,8.73
2023-10-19T22:18:52.404Z,5.63
2023-10-19T22:19:55.086Z,5.23
2023-10-19T22:20:57.395Z,5.93
2023-10-19T22:21:59.394Z,8.47
2023-10-19T22:23:01.103Z,5.87
2023-10-19T22:24:03.816Z,5.00
2023-10-19T22:25:05.914Z,6.33
2023-10-19T22:26:07.458Z,6.33
2023-10-19T22:27:09.455Z,4.90
2023-10-19T22:28:13.960Z,4.57
2023-10-19T22:29:15.762Z,5.90
2023-10-19T22:30:17.552Z,5.60
2023-10-19T22:31:19.861Z,5.67
2023-10-19T22:32:22.818Z,4.57
2023-10-19T22:33:24.901Z,4.47
2023-10-19T22:34:27.602Z,4.70
2023-10-19T22:35:29.301Z,5.70
2023-10-19T22:36:30.982Z,5.37
2023-10-19T22:37:33.597Z,4.33
2023-10-19T22:38:36.669Z,5.17
2023-10-19T22:39:38.584Z,5.10
2023-10-19T22:40:40.652Z,5.10
2023-10-19T22:41:45.526Z,4.57
2023-10-19T22:42:47.311Z,4.30
2023-10-19T22:43:51.129Z,3.63
2023-10-19T22:44:52.840Z,4.10
2023-10-19T22:45:55.217Z,5.27
2023-10-19T22:46:57.293Z,3.53
2023-10-19T22:47:59.284Z,3.50
2023-10-19T22:49:01.244Z,3.97
2023-10-19T22:50:03.121Z,4.07
2023-10-19T22:51:05.277Z,3.10
2023-10-19T22:52:07.180Z,3.50
2023-10-19T22:53:10.035Z,3.77
2023-10-19T22:54:11.641Z,2.93
2023-10-19T22:55:18.097Z,3.33
2023-10-19T22:56:20.917Z,6.20
2023-10-19T22:57:22.473Z,4.10
2023-10-19T22:58:24.096Z,3.13
2023-10-19T22:59:25.795Z,5.23
2023-10-19T23:00:28.673Z,4.73
2023-10-19T23:01:31.883Z,3.47
2023-10-19T23:02:33.591Z,7.43
2023-10-19T23:03:38.079Z,5.13
2023-10-19T23:04:41.197Z,5.27
2023-10-19T23:05:45.071Z,3.80
2023-10-19T23:06:47.136Z,3.80
2023-10-19T23:07:50.592Z,3.33
2023-10-19T23:08:55.397Z,2.97
2023-10-19T23:09:57.346Z,3.10
2023-10-19T23:10:59.086Z,3.77
2023-10-19T23:12:03.807Z,3.30
2023-10-19T23:13:05.804Z,5.27
2023-10-19T23:14:07.733Z,3.17
2023-10-19T23:15:12.891Z,3.77
2023-10-19T23:16:15.690Z,3.10
2023-10-19T23:17:18.234Z,3.33
2023-10-19T23:18:20.291Z,3.20
2023-10-19T23:19:25.394Z,4.03
2023-10-19T23:20:31.410Z,2.93
2023-10-19T23:21:37.880Z,5.23
2023-10-19T23:22:41.166Z,3.33
2023-10-19T23:23:44.868Z,3.50
2023-10-19T23:24:50.996Z,4.67
2023-10-19T23:25:56.086Z,5.57
2023-10-19T23:26:58.865Z,4.97
2023-10-19T23:28:03.407Z,3.30
2023-10-19T23:29:06.105Z,3.87
2023-10-19T23:30:10.075Z,4.00
2023-10-19T23:31:12.728Z,4.30
2023-10-19T23:32:14.904Z,3.73
2023-10-19T23:33:17.344Z,4.27
2023-10-19T23:34:19.152Z,4.07
2023-10-19T23:35:20.834Z,3.90
2023-10-19T23:36:22.589Z,3.40
2023-10-19T23:37:24.252Z,3.63
2023-10-19T23:38:28.956Z,4.13
2023-10-19T23:39:35.941Z,3.30
2023-10-19T23:40:37.651Z,3.97
2023-10-19T23:41:40.143Z,4.97
2023-10-19T23:42:42.087Z,3.13
2023-10-19T23:43:43.739Z,3.10
2023-10-19T23:44:47.974Z,3.90
2023-10-19T23:45:50.881Z,4.03
2023-10-19T23:46:53.525Z,4.00
2023-10-19T23:47:55.508Z,3.73
2023-10-19T23:48:57.195Z,4.20
2023-10-19T23:49:58.955Z,3.90
2023-10-19T23:51:00.717Z,3.97
2023-10-19T23:52:02.865Z,5.63
2023-10-19T23:53:04.685Z,5.60
2023-10-19T23:54:06.292Z,4.97
2023-10-19T23:55:10.747Z,4.00
2023-10-19T23:56:12.446Z,4.80
2023-10-19T23:57:15.676Z,4.30
2023-10-19T23:58:17.313Z,3.70
2023-10-19T23:59:19.293Z,3.90
